Pagrindinis puslapis
METAR-TAF:

METAR-TAF

Oro uostai :

Belo Horizontė, Minas Žeraisas, Brazilija

platuma: 19-56S, ilguma: 043-56W, Aukštis: 850 m

Dabartinis oras

Ataskaita buvo paskelbta 1 valandą ir 10 minutes, ne 03:00 UTC
Vėjas 7 kt iš Rytų/Pietryčių
Temperatūra 14°C
Drėgmė 72%
Slėgis 1023 hPa
Matomumas 10 km arba daugiau
nėra debesų žemiau 1500 m ir nėra kamuolinių lietaus debesų

METAR: SBCF 290300Z 12007KT CAVOK 14/09 Q1023

Laikas: 01:10 (04:10 UTC)

Prognozė

Ataskaita buvo paskelbta 7 valandos ir 10 minutes, ne 21:00 UTC
Prognozė galioja nuo 29 metu 00 UTC su 29 metu 24 UTC
Vėjas 4 kt iš Rytų
Matomumas 10 km arba daugiau
nėra debesų žemiau 1500 m ir nėra kamuolinių lietaus debesų
Tapsmas
nuo 29 metu 04 UTC su 29 metu 06 UTC
Vėjas 5 kt iš Pietų/Pietryčių
Tikimybė 40%
nuo 29 metu 09 UTC su 29 metu 10 UTC
Matomumas: 4000 m
rūkana
Tapsmas
nuo 29 metu 13 UTC su 29 metu 15 UTC
Vėjas 6 kt iš Rytų

TAF: SBCF 282100Z 2900/2924 09004KT CAVOK TN09/2908Z TX24/2917Z BECMG 2904/2906 15005KT PROB40 2909/2910 4000 BR BECMG 2913/2915 09006KT RMK PEP

Orai ataskaitas ir orų prognozės (METAR, TAF).

turimą stotys yra geltonos ir raudonos taškus žemėlapyje.

Perkelti pele per norėdami pamatyti stoties vardą.

Tada spustelėkite, norėdami matyti oro stebėjimo ir prognozės.

Norėdami pakeisti žemėlapį: spustelėkite ant žalios mygtukų su juodo kryžiaus žemyn,; žalią mygtuką su brūkšneliu, jei norite nutolinti; arba žalių rodyklių gretimoms žemėlapius.


METAR-TAF: